Britney Lee — WDC2895 — position and weather

sailwx.info

Track history (hours):
 
Tides and Currents Weather Stations Pressure Air Temp Water Temp Dewpoint Dewpoint Depression Visibility Wind Speed Wind Dir Waves Ship Positions

Britney Lee

Owner: Western Rivers Boat Management, Inc., Paducah, KY. More information available from US FCC via Universal Licensing System and Coast Guard Vessel Documentation Center.

Last reported at 2017-Sep-14 09:44 UTC. Time now 2017-Nov-20 13:51 UTC.
Position N 38°55' W 090°14'.
Warning: this ship's position is months out of date.

Length 44 m; draft 3 m.

Type: Tow > 200 m length. MMSI: 367129650.

Date/timePositionNaut miles runAvg speedWind from/ knotsBaromVisibWave heightAir tempDewpointWater temp
2017-Sep-14 09:44N 38°55' W 090°14'2 4.5
2017-Sep-14 09:15N 38°55' W 090°17'1 5.5
2017-Sep-14 09:00N 38°55' W 090°18'3 5.1
2017-Sep-14 08:30N 38°57' W 090°21'3 5.5
2017-Sep-14 08:00N 38°58' W 090°24'3 5.4
2017-Sep-14 07:30N 38°57' W 090°28'3 5.3
2017-Sep-14 07:00N 38°55' W 090°30'  
2017-Sep-05 12:48N 41°11' W 091°03'2 2.8
2017-Sep-05 12:13N 41°10' W 091°03'1 4.0
2017-Sep-05 12:00N 41°10' W 091°01'2 3.5
2017-Sep-05 11:29N 41°09' W 090°59'2 4.1
2017-Sep-05 11:00N 41°07' W 090°58'2 4.1
2017-Sep-05 10:30N 41°06' W 090°57'2 4.1
2017-Sep-05 10:00N 41°03' W 090°57'2 4.1
2017-Sep-05 09:30N 41°01' W 090°57'2 4.1
2017-Sep-05 09:00N 40°59' W 090°57'2 4.2
2017-Sep-05 08:30N 40°57' W 090°57'2 4.6
2017-Sep-05 08:00N 40°55' W 090°58'2 4.6
2017-Sep-05 07:30N 40°54' W 091°01'1 2.1
2017-Sep-05 07:00N 40°53' W 091°01'0 0.2
2017-Sep-05 06:30N 40°53' W 091°02'0 0.6
2017-Sep-05 06:00N 40°53' W 091°02'2 3.8
2017-Sep-05 05:30N 40°51' W 091°03'2 4.1
2017-Sep-05 05:00N 40°50' W 091°05'2 3.1
2017-Sep-05 04:30N 40°48' W 091°06'2 4.6
2017-Sep-05 04:00N 40°46' W 091°06'8 4.2
2017-Sep-05 02:04N 40°39' W 091°11'0 4.7
2017-Sep-05 01:59N 40°38' W 091°11'2 2.7
2017-Sep-05 01:21N 40°38' W 091°14'  
Track history (hours):
 
Tides and Currents Weather Stations Pressure Air Temp Water Temp Dewpoint Dewpoint Depression Visibility Wind Speed Wind Dir Waves Ship Positions

Britney Lee

Owner: Western Rivers Boat Management, Inc., Paducah, KY. More information available from US FCC via Universal Licensing System and Coast Guard Vessel Documentation Center.

Last reported at 2017-Sep-14 09:44 UTC. Time now 2017-Nov-20 13:51 UTC.
Position N 38°55' W 090°14'.
Warning: this ship's position is months out of date.

Length 44 m; draft 3 m.

Type: Tow > 200 m length. MMSI: 367129650.

Date/timePositionNaut miles runAvg speedWind from/ knotsBaromVisibWave heightAir tempDewpointWater temp
2017-Sep-14 09:44N 38°55' W 090°14'2 4.5
2017-Sep-14 09:15N 38°55' W 090°17'1 5.5
2017-Sep-14 09:00N 38°55' W 090°18'3 5.1
2017-Sep-14 08:30N 38°57' W 090°21'3 5.5
2017-Sep-14 08:00N 38°58' W 090°24'3 5.4
2017-Sep-14 07:30N 38°57' W 090°28'3 5.3
2017-Sep-14 07:00N 38°55' W 090°30'  
2017-Sep-05 12:48N 41°11' W 091°03'2 2.8
2017-Sep-05 12:13N 41°10' W 091°03'1 4.0
2017-Sep-05 12:00N 41°10' W 091°01'2 3.5
2017-Sep-05 11:29N 41°09' W 090°59'2 4.1
2017-Sep-05 11:00N 41°07' W 090°58'2 4.1
2017-Sep-05 10:30N 41°06' W 090°57'2 4.1
2017-Sep-05 10:00N 41°03' W 090°57'2 4.1
2017-Sep-05 09:30N 41°01' W 090°57'2 4.1
2017-Sep-05 09:00N 40°59' W 090°57'2 4.2
2017-Sep-05 08:30N 40°57' W 090°57'2 4.6
2017-Sep-05 08:00N 40°55' W 090°58'2 4.6
2017-Sep-05 07:30N 40°54' W 091°01'1 2.1
2017-Sep-05 07:00N 40°53' W 091°01'0 0.2
2017-Sep-05 06:30N 40°53' W 091°02'0 0.6
2017-Sep-05 06:00N 40°53' W 091°02'2 3.8
2017-Sep-05 05:30N 40°51' W 091°03'2 4.1
2017-Sep-05 05:00N 40°50' W 091°05'2 3.1
2017-Sep-05 04:30N 40°48' W 091°06'2 4.6
2017-Sep-05 04:00N 40°46' W 091°06'8 4.2
2017-Sep-05 02:04N 40°39' W 091°11'0 4.7
2017-Sep-05 01:59N 40°38' W 091°11'2 2.7
2017-Sep-05 01:21N 40°38' W 091°14'  

Dump ship's entire track history